Time;durP1;ratioP1;P1;durP2;ratioP2;P2;SDS_P1;SDS_P2;PMS_P1;PMS_P2;Temp;Humidity;BMP_temperature;BMP_pressure;BME280_temperature;BME280_humidity;BME280_pressure;Samples;Min_cycle;Max_cycle;Signal;HPM_P1;HPM_P2
2022/06/08 00:01:13;;;;;;;2.27;1.97;;;18.00;99.90;;;;;;5014454;28;20407;-70
2022/06/08 00:03:48;;;;;;;3.30;2.07;;;18.00;99.90;;;;;;5014137;28;20412;-71
2022/06/08 00:06:15;;;;;;;2.90;2.37;;;18.00;99.90;;;;;;5034471;23;20493;-66
2022/06/08 00:08:41;;;;;;;2.73;2.03;;;18.00;99.90;;;;;;5013307;28;20404;-66
2022/06/08 00:11:07;;;;;;;2.10;1.90;;;18.00;99.90;;;;;;5013116;28;20416;-66
2022/06/08 00:13:33;;;;;;;2.00;1.90;;;18.00;99.90;;;;;;5013446;28;20823;-66
2022/06/08 00:15:59;;;;;;;2.33;2.13;;;18.00;99.90;;;;;;5013143;28;20546;-66
2022/06/08 00:18:25;;;;;;;2.20;1.80;;;18.00;99.90;;;;;;5013607;28;20774;-66
2022/06/08 00:20:51;;;;;;;2.03;1.83;;;18.00;99.90;;;;;;5013257;28;20658;-66
2022/06/08 00:23:17;;;;;;;3.20;2.90;;;18.00;99.90;;;;;;5013382;28;20174;-66
2022/06/08 00:25:43;;;;;;;3.63;2.20;;;18.00;99.90;;;;;;5013111;28;20928;-66
2022/06/08 00:28:10;;;;;;;3.43;2.37;;;18.00;99.90;;;;;;5013075;28;20700;-66
2022/06/08 00:30:35;;;;;;;2.10;1.93;;;18.00;99.90;;;;;;5013156;28;20522;-66
2022/06/08 00:33:01;;;;;;;2.37;1.90;;;18.00;99.90;;;;;;5013139;28;20431;-66
2022/06/08 00:35:27;;;;;;;2.23;2.03;;;18.00;99.90;;;;;;5012592;28;20638;-67
2022/06/08 00:37:53;;;;;;;2.20;2.00;;;18.10;99.90;;;;;;5013204;28;20247;-66
2022/06/08 00:40:21;;;;;;;2.10;2.00;;;18.10;99.90;;;;;;5012989;28;20652;-66
2022/06/08 00:42:49;;;;;;;2.20;2.10;;;18.00;99.90;;;;;;5012769;28;20541;-66
2022/06/08 00:45:18;;;;;;;3.27;2.17;;;18.00;99.90;;;;;;5012687;28;20492;-65
2022/06/08 00:47:55;;;;;;;2.37;2.07;;;18.00;99.90;;;;;;5004663;28;20413;-66
2022/06/08 00:50:33;;;;;;;1.40;1.30;;;18.00;99.90;;;;;;5013142;28;20411;-66
2022/06/08 00:53:00;;;;;;;2.00;1.90;;;18.00;99.90;;;;;;5012735;28;20568;-66
2022/06/08 00:55:28;;;;;;;2.10;2.00;;;18.00;99.90;;;;;;5012236;28;20505;-66
2022/06/08 00:58:06;;;;;;;2.40;2.20;;;17.90;99.90;;;;;;5012428;28;20417;-66
2022/06/08 01:00:37;;;;;;;2.20;2.00;;;17.90;99.90;;;;;;5011795;28;20409;-66
2022/06/08 01:03:03;;;;;;;1.93;1.80;;;17.80;99.90;;;;;;5012738;28;20395;-66
2022/06/08 01:05:33;;;;;;;2.27;2.07;;;17.80;99.90;;;;;;5011991;28;20457;-66
2022/06/08 01:08:02;;;;;;;2.10;2.00;;;17.70;99.90;;;;;;5012746;28;20506;-66
2022/06/08 01:10:45;;;;;;;2.30;2.10;;;17.70;99.90;;;;;;5014805;28;20419;-66
2022/06/08 01:13:11;;;;;;;2.17;1.87;;;17.60;99.90;;;;;;5012114;28;20504;-65
2022/06/08 01:15:39;;;;;;;2.00;1.83;;;17.60;99.90;;;;;;5011789;28;20465;-66
2022/06/08 01:18:05;;;;;;;2.63;2.43;;;17.60;99.90;;;;;;5012186;28;20967;-66
2022/06/08 01:20:32;;;;;;;2.73;2.43;;;17.60;99.90;;;;;;5011957;28;20421;-66
2022/06/08 01:22:58;;;;;;;2.67;2.47;;;17.50;99.90;;;;;;5010518;28;20511;-65
2022/06/08 01:25:27;;;;;;;1.60;1.50;;;17.50;99.90;;;;;;5011650;28;21005;-66
2022/06/08 01:28:02;;;;;;;1.80;1.70;;;17.40;99.90;;;;;;5012017;28;20418;-66
2022/06/08 01:30:40;;;;;;;2.23;2.03;;;17.40;99.90;;;;;;5012369;28;20414;-67
2022/06/08 01:33:31;;;;;;;5.30;2.50;;;17.30;99.90;;;;;;5011920;28;20496;-66
2022/06/08 01:36:15;;;;;;;2.53;2.10;;;17.30;99.90;;;;;;5011555;28;20456;-67
2022/06/08 01:38:53;;;;;;;2.20;2.10;;;17.30;99.90;;;;;;5011961;28;20712;-66
2022/06/08 01:41:28;;;;;;;3.13;2.30;;;17.30;99.90;;;;;;5011879;28;20489;-66
2022/06/08 01:44:21;;;;;;;3.43;2.47;;;17.20;99.90;;;;;;5009325;28;20429;-66
2022/06/08 01:47:09;;;;;;;2.80;2.57;;;17.00;99.90;;;;;;5011677;28;20478;-66
2022/06/08 01:50:00;;;;;;;3.03;2.30;;;17.00;99.90;;;;;;5011550;28;20520;-67
2022/06/08 01:52:34;;;;;;;2.10;1.83;;;17.00;99.90;;;;;;5011661;28;20409;-67
2022/06/08 01:55:10;;;;;;;3.87;2.40;;;16.90;99.90;;;;;;5011330;28;20424;-67
2022/06/08 01:58:07;;;;;;;2.43;2.13;;;16.80;99.90;;;;;;5011625;28;20404;-67
2022/06/08 02:00:40;;;;;;;3.17;2.37;;;16.70;99.90;;;;;;5011069;28;20411;-66
2022/06/08 02:03:18;;;;;;;2.30;2.10;;;16.70;99.90;;;;;;5010470;28;20486;-66
2022/06/08 02:05:57;;;;;;;2.50;2.10;;;16.60;99.90;;;;;;5011415;28;20448;-67
2022/06/08 02:08:43;;;;;;;2.77;2.57;;;16.60;99.90;;;;;;5011531;28;20415;-66
2022/06/08 02:11:15;;;;;;;2.60;2.23;;;16.60;99.90;;;;;;5011269;28;20407;-66
2022/06/08 02:14:00;;;;;;;2.53;2.33;;;16.60;99.90;;;;;;5011837;28;20733;-66
2022/06/08 02:16:41;;;;;;;3.03;2.73;;;16.60;99.90;;;;;;5011182;28;20472;-66
2022/06/08 02:19:33;;;;;;;2.60;2.23;;;16.60;99.90;;;;;;5011515;28;20408;-66
2022/06/08 02:22:07;;;;;;;4.10;2.80;;;16.60;99.90;;;;;;5003384;28;20423;-67
2022/06/08 02:24:41;;;;;;;2.07;1.90;;;16.50;99.90;;;;;;5011288;28;20813;-67
2022/06/08 02:27:19;;;;;;;2.50;2.30;;;16.50;99.90;;;;;;5011440;28;20414;-67
2022/06/08 02:30:13;;;;;;;3.57;2.07;;;16.50;99.90;;;;;;5010398;28;20451;-66
2022/06/08 02:35:35;;;;;;;3.40;2.80;;;16.50;99.90;;;;;;5011226;28;20463;-66
2022/06/08 02:38:09;;;;;;;3.10;2.80;;;16.50;99.90;;;;;;5011125;28;20416;-65
2022/06/08 02:40:40;;;;;;;2.90;2.67;;;16.50;99.90;;;;;;5011303;28;20411;-67
2022/06/08 02:43:30;;;;;;;3.27;2.97;;;16.60;99.90;;;;;;5011067;28;20417;-65
2022/06/08 02:46:22;;;;;;;3.23;2.90;;;16.60;99.90;;;;;;5010931;28;20579;-65
2022/06/08 02:48:47;;;;;;;2.90;2.70;;;16.60;99.90;;;;;;5011250;28;20412;-65
2022/06/08 02:51:14;;;;;;;3.57;2.67;;;16.60;99.90;;;;;;5011252;28;20760;-66
2022/06/08 02:53:54;;;;;;;3.80;2.67;;;16.70;99.90;;;;;;5011265;28;20318;-66
2022/06/08 02:56:38;;;;;;;4.50;2.80;;;16.70;99.90;;;;;;5010854;28;20457;-65
2022/06/08 02:59:26;;;;;;;2.73;2.50;;;16.80;99.90;;;;;;5011546;28;20435;-65
2022/06/08 03:02:23;;;;;;;2.90;2.47;;;16.80;99.90;;;;;;5011352;28;20759;-65
2022/06/08 03:05:01;;;;;;;2.93;2.23;;;16.80;99.90;;;;;;4999143;28;20461;-65
2022/06/08 03:07:31;;;;;;;2.60;2.40;;;16.90;99.90;;;;;;5011063;28;20470;-66
2022/06/08 03:10:01;;;;;;;3.43;3.13;;;16.90;99.90;;;;;;5011276;28;20408;-66
2022/06/08 03:12:33;;;;;;;2.50;2.30;;;17.00;99.90;;;;;;5011298;28;20412;-66
2022/06/08 03:15:01;;;;;;;4.70;2.53;;;17.00;99.90;;;;;;5010823;28;20431;-67
2022/06/08 03:17:32;;;;;;;5.20;2.90;;;17.00;99.90;;;;;;5011102;28;20899;-66
2022/06/08 03:19:57;;;;;;;3.73;2.30;;;16.90;99.90;;;;;;5011102;28;20452;-66
2022/06/08 03:22:23;;;;;;;2.43;2.33;;;16.90;99.90;;;;;;5010826;28;20894;-65
2022/06/08 03:24:49;;;;;;;2.10;1.83;;;16.90;99.90;;;;;;5014036;28;20494;-64
2022/06/08 03:27:15;;;;;;;2.90;2.70;;;16.90;99.90;;;;;;5014303;28;20182;-65
2022/06/08 03:29:40;;;;;;;2.63;2.30;;;16.90;99.90;;;;;;5014452;28;20185;-65
2022/06/08 03:32:06;;;;;;;4.63;2.10;;;16.90;99.90;;;;;;5014207;28;20417;-65
2022/06/08 03:34:32;;;;;;;2.97;2.67;;;17.00;99.90;;;;;;5014045;28;20177;-65
2022/06/08 03:36:57;;;;;;;3.00;2.53;;;17.00;99.90;;;;;;5014253;28;20597;-65
2022/06/08 03:39:23;;;;;;;3.43;2.70;;;17.10;99.90;;;;;;5014152;28;20171;-66
2022/06/08 03:41:49;;;;;;;3.73;2.77;;;17.20;99.90;;;;;;5014471;28;20181;-66
2022/06/08 03:44:14;;;;;;;4.53;2.63;;;17.40;99.90;;;;;;5014192;28;20177;-66
2022/06/08 03:46:46;;;;;;;2.97;2.67;;;17.50;99.90;;;;;;5013308;28;20194;-65
2022/06/08 03:49:12;;;;;;;3.07;2.37;;;17.60;99.90;;;;;;5013944;28;20259;-65
2022/06/08 03:51:41;;;;;;;3.40;2.50;;;17.70;99.90;;;;;;5014077;28;20446;-66
2022/06/08 03:54:13;;;;;;;2.50;2.30;;;17.80;99.90;;;;;;5014109;28;20166;-66
2022/06/08 03:56:42;;;;;;;3.17;2.50;;;17.80;99.90;;;;;;5013437;28;20454;-65
2022/06/08 03:59:08;;;;;;;3.60;2.40;;;17.80;99.90;;;;;;5012312;28;20428;-65
2022/06/08 04:01:34;;;;;;;4.87;2.73;;;17.90;99.90;;;;;;5013521;28;20435;-65
2022/06/08 04:04:00;;;;;;;2.47;2.27;;;18.00;99.90;;;;;;5013733;28;20982;-66
2022/06/08 04:06:25;;;;;;;2.40;2.17;;;18.10;99.90;;;;;;5013394;28;20207;-65
2022/06/08 04:08:51;;;;;;;1.80;1.57;;;18.10;99.90;;;;;;5013653;28;20178;-65
2022/06/08 04:11:17;;;;;;;2.33;2.13;;;18.30;99.90;;;;;;5013399;28;20176;-65
2022/06/08 04:13:43;;;;;;;3.03;2.57;;;18.40;99.90;;;;;;5013378;28;20411;-65
2022/06/08 04:16:09;;;;;;;2.13;1.90;;;18.70;99.90;;;;;;5013167;28;20464;-66
2022/06/08 04:18:35;;;;;;;2.70;2.37;;;19.00;99.90;;;;;;5013463;28;20638;-66
2022/06/08 04:21:03;;;;;;;2.23;2.03;;;19.00;99.90;;;;;;5013243;28;20202;-65
2022/06/08 04:23:31;;;;;;;1.80;1.70;;;18.80;99.90;;;;;;5013290;28;20763;-66
2022/06/08 04:25:58;;;;;;;2.50;2.30;;;18.80;99.90;;;;;;5013068;28;20444;-67
2022/06/08 04:28:26;;;;;;;2.60;2.30;;;18.80;99.90;;;;;;5013235;28;20930;-66
2022/06/08 04:30:52;;;;;;;1.90;1.70;;;18.80;99.90;;;;;;5013452;28;20496;-67
2022/06/08 04:33:18;;;;;;;2.27;2.10;;;18.70;99.90;;;;;;5013015;28;20418;-67
2022/06/08 04:35:44;;;;;;;2.30;2.10;;;18.70;99.90;;;;;;5011266;28;20468;-67
2022/06/08 04:38:11;;;;;;;1.70;1.60;;;18.60;99.90;;;;;;5012825;28;20473;-66
2022/06/08 04:40:37;;;;;;;1.63;1.50;;;18.70;99.90;;;;;;5013291;28;20560;-66
2022/06/08 04:43:04;;;;;;;1.93;1.70;;;18.80;99.90;;;;;;5012847;28;20405;-66
2022/06/08 04:45:29;;;;;;;2.20;2.00;;;19.20;99.90;;;;;;5012594;28;20425;-66
2022/06/08 04:47:55;;;;;;;1.90;1.70;;;19.50;99.90;;;;;;5012847;28;20498;-66
2022/06/08 04:50:21;;;;;;;2.07;1.70;;;19.80;99.90;;;;;;5012878;28;20185;-66
2022/06/08 04:52:48;;;;;;;2.13;1.83;;;19.80;99.90;;;;;;5012746;28;20175;-66
2022/06/08 04:55:15;;;;;;;2.07;1.80;;;19.70;99.90;;;;;;5012276;28;20523;-66
2022/06/08 04:57:41;;;;;;;2.00;1.80;;;19.90;99.90;;;;;;5012477;28;20406;-66
2022/06/08 05:00:14;;;;;;;1.80;1.70;;;20.00;99.90;;;;;;5012792;28;20399;-67
2022/06/08 05:02:48;;;;;;;1.90;1.80;;;19.80;99.90;;;;;;5011513;28;20174;-67
2022/06/08 05:05:21;;;;;;;2.00;1.80;;;19.90;99.90;;;;;;5012301;28;20609;-66
2022/06/08 05:07:48;;;;;;;2.20;1.63;;;20.00;99.90;;;;;;5012443;28;20490;-66
2022/06/08 05:10:15;;;;;;;3.90;1.83;;;20.60;99.90;;;;;;5012624;28;20810;-66
2022/06/08 05:12:41;;;;;;;2.30;2.10;;;20.80;99.90;;;;;;5012127;28;20410;-66
2022/06/08 05:15:10;;;;;;;2.37;1.80;;;21.20;99.90;;;;;;5012034;28;20470;-66
2022/06/08 05:17:36;;;;;;;2.20;1.60;;;21.10;99.90;;;;;;5012218;28;20259;-66
2022/06/08 05:20:03;;;;;;;1.83;1.73;;;21.10;99.90;;;;;;5012292;28;20508;-66
2022/06/08 05:22:29;;;;;;;2.13;1.93;;;20.60;99.90;;;;;;5012116;28;20413;-66
2022/06/08 05:24:55;;;;;;;1.60;1.40;;;20.50;99.90;;;;;;5011854;28;20519;-66
2022/06/08 05:27:21;;;;;;;2.33;1.87;;;20.20;99.90;;;;;;5012021;28;20179;-65
2022/06/08 05:29:46;;;;;;;1.93;1.83;;;20.00;99.90;;;;;;5012095;28;20184;-66
2022/06/08 05:32:12;;;;;;;2.30;1.90;;;19.80;99.90;;;;;;5011872;28;20421;-66
2022/06/08 05:34:37;;;;;;;2.00;1.50;;;19.70;99.90;;;;;;5011696;28;20284;-67
2022/06/08 05:37:03;;;;;;;3.13;1.87;;;20.30;99.90;;;;;;5011930;28;20214;-67
2022/06/08 05:39:29;;;;;;;2.43;2.00;;;20.70;99.90;;;;;;5011927;28;20178;-66
2022/06/08 05:41:55;;;;;;;2.33;1.50;;;21.20;99.90;;;;;;5012406;28;20171;-66
2022/06/08 05:44:21;;;;;;;2.20;1.30;;;21.80;99.90;;;;;;5012059;28;20184;-67
2022/06/08 05:46:50;;;;;;;1.83;1.57;;;22.40;99.90;;;;;;5011366;28;20409;-66
2022/06/08 05:49:17;;;;;;;3.97;1.87;;;22.50;99.90;;;;;;5011939;28;20182;-65
2022/06/08 05:51:43;;;;;;;1.60;1.50;;;22.30;99.90;;;;;;5011963;28;20467;-66
2022/06/08 05:54:10;;;;;;;1.80;1.30;;;21.90;99.90;;;;;;5011855;28;20422;-65
2022/06/08 05:56:36;;;;;;;2.80;1.93;;;22.10;99.90;;;;;;5011543;28;20476;-66
2022/06/08 05:59:02;;;;;;;2.00;1.53;;;22.40;99.90;;;;;;5011849;28;20415;-65
2022/06/08 06:01:27;;;;;;;3.87;1.83;;;22.40;99.90;;;;;;5011655;28;20173;-65
2022/06/08 06:03:53;;;;;;;2.50;1.83;;;22.40;99.90;;;;;;5010407;28;20410;-65
2022/06/08 06:06:19;;;;;;;2.10;1.63;;;22.40;99.90;;;;;;5022658;22;20250;-70
2022/06/08 06:08:45;;;;;;;2.83;1.23;;;22.20;99.90;;;;;;4991377;28;20205;-69
2022/06/08 06:11:13;;;;;;;1.80;1.70;;;21.80;99.90;;;;;;4991740;28;20176;-69
2022/06/08 06:13:39;;;;;;;3.13;2.10;;;22.60;99.90;;;;;;4992754;28;20510;-69
2022/06/08 06:16:05;;;;;;;4.10;3.07;;;21.80;99.90;;;;;;4986727;28;20976;-68
2022/06/08 06:18:31;;;;;;;2.70;1.97;;;22.50;99.90;;;;;;4988606;28;20510;-68
2022/06/08 06:20:57;;;;;;;3.13;2.17;;;22.40;99.90;;;;;;4986166;28;20277;-68
2022/06/08 06:23:22;;;;;;;1.40;1.30;;;22.20;99.90;;;;;;4985771;28;20194;-69
2022/06/08 06:25:48;;;;;;;1.83;1.73;;;22.40;99.90;;;;;;4990716;28;20198;-68
2022/06/08 06:28:13;;;;;;;1.50;1.40;;;22.10;99.90;;;;;;4993984;28;20179;-69
2022/06/08 06:30:39;;;;;;;1.70;1.60;;;22.30;99.90;;;;;;4994829;28;20263;-69
2022/06/08 06:33:05;;;;;;;2.40;2.20;;;22.60;99.90;;;;;;4985725;28;20183;-69
2022/06/08 06:35:30;;;;;;;1.50;1.40;;;22.80;99.90;;;;;;4994080;28;20206;-69
2022/06/08 06:37:56;;;;;;;1.60;1.47;;;23.50;99.90;;;;;;4996541;28;20247;-69
2022/06/08 06:40:22;;;;;;;4.40;1.63;;;23.70;99.90;;;;;;4995375;28;20169;-70
2022/06/08 06:42:48;;;;;;;1.33;1.23;;;24.00;99.90;;;;;;4994913;28;20713;-69
2022/06/08 06:45:14;;;;;;;2.07;1.50;;;24.70;99.90;;;;;;4994453;28;20427;-70
2022/06/08 06:47:40;;;;;;;3.20;1.40;;;24.80;99.90;;;;;;4994536;28;20396;-69
2022/06/08 06:50:09;;;;;;;2.57;1.60;;;25.20;99.90;;;;;;4983841;28;20925;-69
2022/06/08 06:52:34;;;;;;;1.53;1.43;;;24.50;99.90;;;;;;4992458;28;20948;-69
2022/06/08 06:55:00;;;;;;;3.40;1.63;;;23.90;99.90;;;;;;4992166;28;20436;-69
2022/06/08 06:57:25;;;;;;;1.83;1.33;;;24.00;99.90;;;;;;4992326;28;20197;-69
2022/06/08 06:59:51;;;;;;;1.73;1.43;;;23.80;99.90;;;;;;4996539;28;20165;-69
2022/06/08 07:02:21;;;;;;;2.63;2.03;;;23.60;99.90;;;;;;4995842;28;20227;-69
2022/06/08 07:04:47;;;;;;;7.43;4.13;;;24.30;99.90;;;;;;4996448;28;20253;-69
2022/06/08 07:07:13;;;;;;;1.70;1.60;;;24.30;99.90;;;;;;4996209;28;20534;-69
2022/06/08 07:09:39;;;;;;;1.70;1.50;;;23.90;99.90;;;;;;4996088;28;20421;-69
2022/06/08 07:12:06;;;;;;;1.60;1.37;;;23.50;99.90;;;;;;4996292;28;20502;-69
2022/06/08 07:14:32;;;;;;;1.60;1.50;;;24.40;99.90;;;;;;4994590;28;20419;-69
2022/06/08 07:16:58;;;;;;;1.43;1.33;;;24.90;99.90;;;;;;4995586;28;20567;-69
2022/06/08 07:19:24;;;;;;;1.60;1.50;;;24.80;99.90;;;;;;4995676;28;20447;-70
2022/06/08 07:21:50;;;;;;;1.50;1.37;;;24.70;99.90;;;;;;4995776;28;21037;-69
2022/06/08 07:24:23;;;;;;;1.73;1.63;;;25.40;99.90;;;;;;4995879;28;20199;-69
2022/06/08 07:26:49;;;;;;;4.40;1.00;;;24.70;98.80;;;;;;4976787;28;20428;-69
2022/06/08 07:29:15;;;;;;;2.33;1.30;;;24.70;99.90;;;;;;4975385;28;20479;-69
2022/06/08 07:31:41;;;;;;;1.27;1.10;;;24.80;99.90;;;;;;4977193;28;20437;-70
2022/06/08 07:34:07;;;;;;;1.20;1.10;;;24.40;99.90;;;;;;4977243;28;20408;-69
2022/06/08 07:36:33;;;;;;;3.30;1.07;;;24.20;99.90;;;;;;4977572;28;20517;-70
2022/06/08 07:38:59;;;;;;;1.30;1.13;;;23.70;99.90;;;;;;4977524;28;20414;-70
2022/06/08 07:41:25;;;;;;;1.40;1.20;;;23.90;99.90;;;;;;4988079;28;20175;-69
2022/06/08 07:43:50;;;;;;;2.30;2.10;;;23.70;99.90;;;;;;4995547;28;20646;-70
2022/06/08 07:46:19;;;;;;;2.70;2.50;;;24.40;99.90;;;;;;4996754;28;20431;-69
2022/06/08 07:51:29;;;;;;;1.27;1.10;;;23.70;99.90;;;;;;4996754;28;20438;-68
2022/06/08 07:53:55;;;;;;;1.30;1.20;;;24.10;99.90;;;;;;4996029;28;20425;-68
2022/06/08 07:56:21;;;;;;;1.30;1.20;;;23.70;99.90;;;;;;4995682;28;20457;-68
2022/06/08 07:58:48;;;;;;;1.27;1.17;;;24.40;99.90;;;;;;4996365;28;20206;-68
2022/06/08 08:01:14;;;;;;;0.90;0.90;;;25.10;99.90;;;;;;4996366;28;20407;-68
2022/06/08 08:03:39;;;;;;;1.63;1.17;;;24.90;99.10;;;;;;4996117;28;20404;-69
2022/06/08 08:06:06;;;;;;;1.17;1.00;;;25.90;99.90;;;;;;4995760;28;20208;-68
2022/06/08 08:08:32;;;;;;;2.70;1.30;;;26.30;98.00;;;;;;4994892;28;20173;-68
2022/06/08 08:10:58;;;;;;;1.10;1.00;;;26.10;97.30;;;;;;4994292;28;20412;-68
2022/06/08 08:13:24;;;;;;;1.83;1.20;;;26.20;98.00;;;;;;4994470;28;21028;-68
2022/06/08 08:15:51;;;;;;;1.03;0.97;;;26.30;98.20;;;;;;4994198;28;20201;-68
2022/06/08 08:18:17;;;;;;;1.23;0.93;;;26.20;98.70;;;;;;4994668;28;20591;-68
2022/06/08 08:20:43;;;;;;;1.00;0.90;;;27.10;95.80;;;;;;4994497;28;20408;-68
2022/06/08 08:23:08;;;;;;;1.37;1.00;;;27.00;97.00;;;;;;4994804;28;20596;-68
2022/06/08 08:25:35;;;;;;;1.43;1.33;;;28.40;95.70;;;;;;4998269;28;20192;-68
2022/06/08 08:28:01;;;;;;;1.10;1.00;;;29.00;93.70;;;;;;4996449;28;20520;-69
2022/06/08 08:30:28;;;;;;;1.00;0.90;;;28.80;94.30;;;;;;4994508;28;20416;-69
2022/06/08 08:32:54;;;;;;;0.90;0.90;;;29.20;92.60;;;;;;4994506;28;20400;-68
2022/06/08 08:35:21;;;;;;;0.93;0.90;;;26.40;93.70;;;;;;4994225;28;20969;-68
2022/06/08 08:37:47;;;;;;;1.10;1.00;;;26.40;95.10;;;;;;4994394;28;20169;-68
2022/06/08 08:40:33;;;;;;;1.00;0.90;;;26.40;96.60;;;;;;4994679;28;20490;-68
2022/06/08 08:42:59;;;;;;;1.20;1.10;;;25.80;96.10;;;;;;4994183;28;20173;-68
2022/06/08 08:45:27;;;;;;;1.30;1.13;;;25.10;97.30;;;;;;4994121;28;20511;-68
2022/06/08 08:48:12;;;;;;;0.80;0.73;;;25.20;97.70;;;;;;4993745;28;20404;-68
2022/06/08 08:50:50;;;;;;;1.23;1.13;;;26.10;97.80;;;;;;4993972;28;20407;-68
2022/06/08 08:53:25;;;;;;;1.10;1.00;;;27.10;96.00;;;;;;4994172;28;20558;-68
2022/06/08 08:56:03;;;;;;;1.07;1.00;;;26.30;95.80;;;;;;4993982;28;20459;-68
2022/06/08 08:58:37;;;;;;;1.13;1.03;;;26.00;97.00;;;;;;4994418;28;20439;-68
2022/06/08 09:01:18;;;;;;;1.10;1.00;;;26.20;97.80;;;;;;4994611;28;20411;-68
2022/06/08 09:04:03;;;;;;;1.10;1.00;;;27.80;94.80;;;;;;4994899;28;20980;-67
2022/06/08 09:06:31;;;;;;;1.00;0.90;;;28.00;93.60;;;;;;4994494;28;20494;-68
2022/06/08 09:09:00;;;;;;;2.17;1.00;;;27.20;93.80;;;;;;4994306;28;20408;-68
2022/06/08 09:11:36;;;;;;;1.40;1.30;;;26.10;95.80;;;;;;4994389;28;20404;-68
2022/06/08 09:14:06;;;;;;;1.40;1.23;;;25.30;96.40;;;;;;4993917;28;20429;-68
2022/06/08 09:16:42;;;;;;;1.30;1.20;;;25.70;96.60;;;;;;4993612;28;20506;-68
2022/06/08 09:19:35;;;;;;;1.30;1.20;;;25.30;96.90;;;;;;4993940;28;20400;-69
2022/06/08 09:22:04;;;;;;;1.33;1.20;;;25.60;96.90;;;;;;4992849;28;20492;-68
2022/06/08 09:24:47;;;;;;;4.07;1.27;;;26.10;96.70;;;;;;4993195;28;20412;-68
2022/06/08 09:27:13;;;;;;;2.30;1.20;;;25.70;97.00;;;;;;4993199;28;20435;-68
2022/06/08 09:29:49;;;;;;;1.27;1.03;;;25.60;96.50;;;;;;4993650;28;20775;-69
2022/06/08 09:32:34;;;;;;;1.20;1.10;;;25.40;97.30;;;;;;4993215;28;20173;-68
2022/06/08 09:35:16;;;;;;;1.60;1.37;;;25.60;96.20;;;;;;4992760;28;20412;-67
2022/06/08 09:37:43;;;;;;;1.47;1.20;;;25.00;97.40;;;;;;4993367;28;20442;-68
2022/06/08 09:40:36;;;;;;;1.57;1.30;;;25.00;97.80;;;;;;4993270;28;20399;-68
2022/06/08 09:43:10;;;;;;;1.23;1.13;;;25.00;97.90;;;;;;4992768;28;20415;-68
2022/06/08 09:46:09;;;;;;;2.37;2.17;;;24.80;97.60;;;;;;4992732;28;20419;-68
2022/06/08 09:51:45;;;;;;;1.40;1.30;;;25.10;96.90;;;;;;4987631;28;20438;-69
2022/06/08 09:54:17;;;;;;;1.53;1.00;;;25.20;97.10;;;;;;4975783;28;20973;-68
2022/06/08 09:57:21;;;;;;;1.30;1.20;;;25.10;97.10;;;;;;4975074;28;20460;-68
2022/06/08 10:00:20;;;;;;;1.20;1.10;;;25.20;97.40;;;;;;4975157;28;20417;-68
2022/06/08 10:02:54;;;;;;;1.40;1.17;;;25.10;97.80;;;;;;4973151;28;20414;-69
2022/06/08 10:05:29;;;;;;;2.00;1.40;;;25.00;97.60;;;;;;4976415;28;20492;-67
2022/06/08 10:08:00;;;;;;;1.20;1.10;;;25.10;96.90;;;;;;4992983;28;20770;-69
2022/06/08 10:10:34;;;;;;;1.20;1.10;;;24.90;97.00;;;;;;4995243;28;20401;-68
2022/06/08 10:13:05;;;;;;;1.20;1.10;;;24.70;97.60;;;;;;4996759;28;20452;-68
2022/06/08 10:15:42;;;;;;;1.67;1.57;;;24.10;97.70;;;;;;4994181;28;20418;-67
2022/06/08 10:18:28;;;;;;;1.27;1.17;;;24.70;97.80;;;;;;4992782;28;20462;-68
2022/06/08 10:21:01;;;;;;;1.27;1.17;;;25.10;97.50;;;;;;4993168;28;20445;-68
2022/06/08 10:23:42;;;;;;;1.20;1.10;;;25.30;97.70;;;;;;4992855;28;20498;-68
2022/06/08 10:26:25;;;;;;;1.30;1.20;;;26.00;96.80;;;;;;4990718;28;20497;-68
2022/06/08 10:28:59;;;;;;;1.40;1.30;;;25.80;96.70;;;;;;4993454;28;20882;-68
2022/06/08 10:31:31;;;;;;;1.53;1.00;;;25.60;96.50;;;;;;4992956;28;20418;-68
2022/06/08 10:34:31;;;;;;;1.20;1.10;;;25.40;96.50;;;;;;4997021;28;20419;-68
2022/06/08 10:37:04;;;;;;;1.10;1.00;;;25.60;97.20;;;;;;4986586;28;20474;-68
2022/06/08 10:39:32;;;;;;;1.10;1.00;;;25.20;96.60;;;;;;4997879;28;20410;-68
2022/06/08 10:45:22;;;;;;;1.53;1.43;;;25.10;97.70;;;;;;4998270;28;20399;-68
2022/06/08 10:48:10;;;;;;;1.33;1.20;;;24.90;97.20;;;;;;4997140;28;20421;-68
2022/06/08 10:50:39;;;;;;;1.80;1.70;;;24.80;97.20;;;;;;4996871;28;20817;-68
2022/06/08 10:56:23;;;;;;;1.07;0.97;;;24.60;97.00;;;;;;4997375;28;20537;-68
2022/06/08 10:58:57;;;;;;;0.80;0.80;;;24.60;97.60;;;;;;4997632;28;20503;-68
2022/06/08 11:01:35;;;;;;;1.50;1.40;;;25.00;97.30;;;;;;4997645;28;20411;-69
2022/06/08 11:04:02;;;;;;;1.90;1.53;;;25.90;96.90;;;;;;4997490;28;20414;-68
2022/06/08 11:06:57;;;;;;;1.30;1.13;;;25.80;97.00;;;;;;4996022;28;20817;-68
2022/06/08 11:09:34;;;;;;;1.70;1.60;;;25.40;96.20;;;;;;4994382;28;20422;-68
2022/06/08 11:12:01;;;;;;;1.33;0.80;;;25.20;96.80;;;;;;4996160;28;20407;-68
2022/06/08 11:14:32;;;;;;;1.50;1.20;;;24.90;96.40;;;;;;4996000;28;20409;-67
2022/06/08 11:17:03;;;;;;;2.70;1.50;;;24.90;96.10;;;;;;4996425;28;20513;-69
2022/06/08 11:19:31;;;;;;;2.20;1.53;;;25.10;97.00;;;;;;4996648;28;20507;-68
2022/06/08 11:22:00;;;;;;;1.63;1.00;;;25.30;96.50;;;;;;4997207;28;20731;-68
2022/06/08 11:24:29;;;;;;;2.60;1.73;;;25.00;95.40;;;;;;4997687;28;20413;-68
2022/06/08 11:27:00;;;;;;;1.57;1.47;;;24.80;96.10;;;;;;4997328;28;20446;-69
2022/06/08 11:29:36;;;;;;;0.93;0.90;;;24.90;96.90;;;;;;4997419;28;20419;-68
2022/06/08 11:32:03;;;;;;;1.77;1.00;;;25.00;96.30;;;;;;4997987;28;20502;-69
2022/06/08 11:34:52;;;;;;;2.00;1.00;;;24.90;96.60;;;;;;4997290;28;20765;-68
2022/06/08 11:37:23;;;;;;;1.10;1.00;;;25.20;96.60;;;;;;4995607;28;20453;-67
2022/06/08 11:40:14;;;;;;;3.13;1.10;;;25.60;97.00;;;;;;4995974;28;20494;-68
2022/06/08 11:42:50;;;;;;;1.70;1.10;;;25.50;96.10;;;;;;4995734;28;20407;-70
2022/06/08 11:45:23;;;;;;;1.23;0.90;;;25.30;96.10;;;;;;4994428;28;20414;-68
2022/06/08 11:47:59;;;;;;;0.90;0.90;;;25.30;95.90;;;;;;4995737;28;20444;-68
2022/06/08 11:50:29;;;;;;;1.67;1.07;;;25.90;95.60;;;;;;4995586;28;20819;-68
2022/06/08 11:53:13;;;;;;;0.80;0.80;;;26.10;95.40;;;;;;4993822;28;20956;-68
2022/06/08 11:56:03;;;;;;;1.27;1.00;;;26.70;94.40;;;;;;4995044;28;20471;-69
2022/06/08 11:58:30;;;;;;;1.33;1.00;;;27.00;94.40;;;;;;4995356;28;20450;-68
2022/06/08 12:01:02;;;;;;;1.10;1.00;;;26.90;93.50;;;;;;4998955;28;20855;-71
2022/06/08 12:03:44;;;;;;;1.20;1.10;;;26.30;93.70;;;;;;4996758;28;20404;-68
2022/06/08 12:06:22;;;;;;;1.20;1.10;;;25.60;94.40;;;;;;4995457;28;20480;-68
2022/06/08 12:08:53;;;;;;;1.10;1.00;;;26.00;94.10;;;;;;4996315;28;20415;-69
2022/06/08 12:11:23;;;;;;;1.10;1.00;;;25.70;94.40;;;;;;4996722;28;20416;-68
2022/06/08 12:13:58;;;;;;;1.13;1.03;;;25.60;94.40;;;;;;4996780;28;20411;-69
2022/06/08 12:16:35;;;;;;;2.57;1.20;;;25.30;94.60;;;;;;4995070;28;20481;-68
2022/06/08 12:19:03;;;;;;;1.10;0.90;;;25.40;94.80;;;;;;4994299;28;20452;-68
2022/06/08 12:21:34;;;;;;;2.00;0.93;;;25.40;95.60;;;;;;4995446;28;20417;-68
2022/06/08 12:24:04;;;;;;;1.90;1.33;;;25.50;95.00;;;;;;4995407;28;20426;-70
2022/06/08 12:26:40;;;;;;;1.17;1.07;;;25.80;94.70;;;;;;4994021;28;20439;-68
2022/06/08 12:29:32;;;;;;;3.80;1.53;;;25.90;94.70;;;;;;4994486;28;20417;-69
2022/06/08 12:31:58;;;;;;;1.37;1.27;;;25.80;94.70;;;;;;4995561;28;20426;-69
2022/06/08 12:34:34;;;;;;;2.13;1.93;;;25.70;93.80;;;;;;4995752;28;20404;-68
2022/06/08 12:37:22;;;;;;;7.07;5.27;;;25.80;94.70;;;;;;4994788;28;20482;-69
2022/06/08 12:39:48;;;;;;;2.20;1.80;;;26.40;94.70;;;;;;4986506;28;20417;-69
2022/06/08 12:42:32;;;;;;;0.97;0.90;;;26.70;93.50;;;;;;4994002;28;20501;-69
2022/06/08 12:44:59;;;;;;;1.00;0.90;;;26.80;94.10;;;;;;4993717;28;20410;-70
2022/06/08 12:47:31;;;;;;;2.17;1.17;;;27.00;93.00;;;;;;4994071;28;20415;-69
2022/06/08 12:50:06;;;;;;;2.10;1.43;;;27.30;92.90;;;;;;4994047;28;20425;-68
2022/06/08 12:52:36;;;;;;;0.80;0.80;;;27.00;91.20;;;;;;4992298;28;20830;-68
2022/06/08 12:55:03;;;;;;;0.80;0.80;;;26.60;91.70;;;;;;4993240;28;20411;-68
2022/06/08 12:57:31;;;;;;;0.90;0.80;;;26.50;92.00;;;;;;4992789;28;20470;-68
2022/06/08 12:59:59;;;;;;;0.90;0.70;;;26.30;92.70;;;;;;4993621;28;20428;-68
2022/06/08 13:02:37;;;;;;;8.10;7.27;;;26.00;91.90;;;;;;4993513;28;20417;-68
2022/06/08 13:05:16;;;;;;;3.73;3.10;;;26.10;92.30;;;;;;4993017;28;20448;-69
2022/06/08 13:07:42;;;;;;;0.87;0.83;;;26.00;92.30;;;;;;4993456;28;20438;-69
2022/06/08 13:10:08;;;;;;;9.10;7.23;;;25.80;92.30;;;;;;4993504;28;20447;-69
2022/06/08 13:12:41;;;;;;;1.57;1.30;;;25.90;92.70;;;;;;4993228;28;20437;-69
2022/06/08 13:15:17;;;;;;;1.20;0.90;;;25.80;93.10;;;;;;4992972;28;20253;-68
2022/06/08 13:17:42;;;;;;;0.70;0.70;;;25.60;93.20;;;;;;4993903;28;20461;-69
2022/06/08 13:20:27;;;;;;;1.63;1.10;;;25.50;93.40;;;;;;4993723;28;20461;-69
2022/06/08 13:22:53;;;;;;;1.07;0.90;;;26.10;93.10;;;;;;4993690;28;20179;-69
2022/06/08 13:25:21;;;;;;;1.43;0.77;;;25.70;92.60;;;;;;4993291;28;20439;-69